sensor_id;sensor_type;location;lat;lon;timestamp;P1;durP1;ratioP1;P2;durP2;ratioP2
34960;SDS011;30789;52.030;7.110;2023-06-22T00:01:10;12.27;;;10.98;;
34960;SDS011;30789;52.030;7.110;2023-06-22T00:03:37;14.00;;;10.50;;
34960;SDS011;30789;52.030;7.110;2023-06-22T00:06:05;11.30;;;9.90;;
34960;SDS011;30789;52.030;7.110;2023-06-22T00:08:31;11.77;;;10.57;;
34960;SDS011;30789;52.030;7.110;2023-06-22T00:10:58;14.25;;;11.52;;
34960;SDS011;30789;52.030;7.110;2023-06-22T00:13:24;15.90;;;11.43;;
34960;SDS011;30789;52.030;7.110;2023-06-22T00:15:51;11.73;;;10.50;;
34960;SDS011;30789;52.030;7.110;2023-06-22T00:18:17;15.32;;;12.45;;
34960;SDS011;30789;52.030;7.110;2023-06-22T00:20:43;12.88;;;11.50;;
34960;SDS011;30789;52.030;7.110;2023-06-22T00:23:12;12.77;;;11.45;;
34960;SDS011;30789;52.030;7.110;2023-06-22T00:25:41;12.90;;;11.60;;
34960;SDS011;30789;52.030;7.110;2023-06-22T00:28:07;12.70;;;11.40;;
34960;SDS011;30789;52.030;7.110;2023-06-22T00:30:34;11.93;;;10.73;;
34960;SDS011;30789;52.030;7.110;2023-06-22T00:33:01;13.27;;;11.95;;
34960;SDS011;30789;52.030;7.110;2023-06-22T00:35:28;13.05;;;11.30;;
34960;SDS011;30789;52.030;7.110;2023-06-22T00:37:54;12.02;;;10.80;;
34960;SDS011;30789;52.030;7.110;2023-06-22T00:40:27;13.65;;;12.13;;
34960;SDS011;30789;52.030;7.110;2023-06-22T00:42:54;14.48;;;11.13;;
34960;SDS011;30789;52.030;7.110;2023-06-22T00:45:21;13.30;;;11.80;;
34960;SDS011;30789;52.030;7.110;2023-06-22T00:47:49;13.45;;;11.07;;
34960;SDS011;30789;52.030;7.110;2023-06-22T00:50:17;12.93;;;11.60;;
34960;SDS011;30789;52.030;7.110;2023-06-22T00:52:46;13.50;;;11.85;;
34960;SDS011;30789;52.030;7.110;2023-06-22T00:55:14;13.70;;;12.18;;
34960;SDS011;30789;52.030;7.110;2023-06-22T00:57:44;13.30;;;11.85;;
34960;SDS011;30789;52.030;7.110;2023-06-22T01:00:12;14.07;;;12.23;;
34960;SDS011;30789;52.030;7.110;2023-06-22T01:02:42;13.93;;;12.48;;
34960;SDS011;30789;52.030;7.110;2023-06-22T01:05:10;13.68;;;12.23;;
34960;SDS011;30789;52.030;7.110;2023-06-22T01:07:39;14.63;;;12.63;;
34960;SDS011;30789;52.030;7.110;2023-06-22T01:12:42;14.60;;;12.38;;
34960;SDS011;30789;52.030;7.110;2023-06-22T01:15:16;15.25;;;12.10;;
34960;SDS011;30789;52.030;7.110;2023-06-22T01:17:47;16.63;;;12.52;;
34960;SDS011;30789;52.030;7.110;2023-06-22T01:20:16;14.82;;;12.27;;
34960;SDS011;30789;52.030;7.110;2023-06-22T01:22:46;15.60;;;13.30;;
34960;SDS011;30789;52.030;7.110;2023-06-22T01:25:33;17.02;;;13.13;;
34960;SDS011;30789;52.030;7.110;2023-06-22T01:28:12;15.95;;;13.48;;
34960;SDS011;30789;52.030;7.110;2023-06-22T01:30:51;14.98;;;12.98;;
34960;SDS011;30789;52.030;7.110;2023-06-22T01:33:28;14.90;;;13.20;;
34960;SDS011;30789;52.030;7.110;2023-06-22T01:35:57;15.23;;;13.73;;
34960;SDS011;30789;52.030;7.110;2023-06-22T01:38:25;14.32;;;12.90;;
34960;SDS011;30789;52.030;7.110;2023-06-22T01:40:53;15.95;;;14.23;;
34960;SDS011;30789;52.030;7.110;2023-06-22T01:43:21;16.63;;;14.00;;
34960;SDS011;30789;52.030;7.110;2023-06-22T01:45:49;14.63;;;13.13;;
34960;SDS011;30789;52.030;7.110;2023-06-22T01:48:17;17.00;;;14.13;;
34960;SDS011;30789;52.030;7.110;2023-06-22T01:50:45;16.98;;;13.95;;
34960;SDS011;30789;52.030;7.110;2023-06-22T01:53:12;16.50;;;13.63;;
34960;SDS011;30789;52.030;7.110;2023-06-22T01:55:38;15.55;;;13.88;;
34960;SDS011;30789;52.030;7.110;2023-06-22T01:58:05;17.90;;;14.38;;
34960;SDS011;30789;52.030;7.110;2023-06-22T02:00:32;17.48;;;14.60;;
34960;SDS011;30789;52.030;7.110;2023-06-22T02:03:03;16.25;;;13.98;;
34960;SDS011;30789;52.030;7.110;2023-06-22T02:05:49;17.50;;;14.88;;
34960;SDS011;30789;52.030;7.110;2023-06-22T02:08:19;15.77;;;14.10;;
34960;SDS011;30789;52.030;7.110;2023-06-22T02:10:47;16.77;;;14.77;;
34960;SDS011;30789;52.030;7.110;2023-06-22T02:13:15;16.70;;;14.60;;
34960;SDS011;30789;52.030;7.110;2023-06-22T02:15:42;17.02;;;15.23;;
34960;SDS011;30789;52.030;7.110;2023-06-22T02:18:09;16.85;;;14.98;;
34960;SDS011;30789;52.030;7.110;2023-06-22T02:20:36;16.83;;;14.52;;
34960;SDS011;30789;52.030;7.110;2023-06-22T02:23:05;17.52;;;14.05;;
34960;SDS011;30789;52.030;7.110;2023-06-22T02:25:32;15.77;;;14.05;;
34960;SDS011;30789;52.030;7.110;2023-06-22T02:27:59;17.65;;;15.73;;
34960;SDS011;30789;52.030;7.110;2023-06-22T02:30:25;16.35;;;14.70;;
34960;SDS011;30789;52.030;7.110;2023-06-22T02:32:52;16.73;;;15.02;;
34960;SDS011;30789;52.030;7.110;2023-06-22T02:35:23;20.15;;;14.43;;
34960;SDS011;30789;52.030;7.110;2023-06-22T02:37:50;18.08;;;15.43;;
34960;SDS011;30789;52.030;7.110;2023-06-22T02:40:18;16.10;;;14.35;;
34960;SDS011;30789;52.030;7.110;2023-06-22T02:42:44;17.30;;;15.40;;
34960;SDS011;30789;52.030;7.110;2023-06-22T02:45:11;16.77;;;14.98;;
34960;SDS011;30789;52.030;7.110;2023-06-22T02:47:37;17.40;;;15.50;;
34960;SDS011;30789;52.030;7.110;2023-06-22T02:50:07;17.45;;;15.45;;
34960;SDS011;30789;52.030;7.110;2023-06-22T02:52:34;17.92;;;16.13;;
34960;SDS011;30789;52.030;7.110;2023-06-22T02:55:01;18.00;;;16.13;;
34960;SDS011;30789;52.030;7.110;2023-06-22T02:57:29;19.38;;;15.55;;
34960;SDS011;30789;52.030;7.110;2023-06-22T02:59:56;17.65;;;15.52;;
34960;SDS011;30789;52.030;7.110;2023-06-22T03:02:22;22.08;;;15.95;;
34960;SDS011;30789;52.030;7.110;2023-06-22T03:04:49;17.23;;;15.43;;
34960;SDS011;30789;52.030;7.110;2023-06-22T03:07:18;19.02;;;15.68;;
34960;SDS011;30789;52.030;7.110;2023-06-22T03:09:45;22.33;;;16.13;;
34960;SDS011;30789;52.030;7.110;2023-06-22T03:12:11;18.05;;;16.05;;
34960;SDS011;30789;52.030;7.110;2023-06-22T03:14:40;21.80;;;16.70;;
34960;SDS011;30789;52.030;7.110;2023-06-22T03:17:06;17.27;;;15.45;;
34960;SDS011;30789;52.030;7.110;2023-06-22T03:19:33;19.35;;;16.35;;
34960;SDS011;30789;52.030;7.110;2023-06-22T03:22:00;20.38;;;16.52;;
34960;SDS011;30789;52.030;7.110;2023-06-22T03:24:26;21.35;;;15.98;;
34960;SDS011;30789;52.030;7.110;2023-06-22T03:26:54;18.52;;;15.65;;
34960;SDS011;30789;52.030;7.110;2023-06-22T03:29:21;22.23;;;16.70;;
34960;SDS011;30789;52.030;7.110;2023-06-22T03:31:50;19.90;;;15.63;;
34960;SDS011;30789;52.030;7.110;2023-06-22T03:34:16;19.52;;;16.70;;
34960;SDS011;30789;52.030;7.110;2023-06-22T03:36:43;17.88;;;15.98;;
34960;SDS011;30789;52.030;7.110;2023-06-22T03:39:10;18.70;;;15.27;;
34960;SDS011;30789;52.030;7.110;2023-06-22T03:41:37;24.42;;;16.73;;
34960;SDS011;30789;52.030;7.110;2023-06-22T03:44:04;20.77;;;16.02;;
34960;SDS011;30789;52.030;7.110;2023-06-22T03:46:30;19.23;;;16.02;;
34960;SDS011;30789;52.030;7.110;2023-06-22T03:48:58;19.13;;;15.65;;
34960;SDS011;30789;52.030;7.110;2023-06-22T03:51:25;19.92;;;16.33;;
34960;SDS011;30789;52.030;7.110;2023-06-22T03:53:51;20.13;;;17.23;;
34960;SDS011;30789;52.030;7.110;2023-06-22T03:56:18;20.90;;;16.88;;
34960;SDS011;30789;52.030;7.110;2023-06-22T03:58:45;18.35;;;15.18;;
34960;SDS011;30789;52.030;7.110;2023-06-22T04:01:12;22.70;;;15.88;;
34960;SDS011;30789;52.030;7.110;2023-06-22T04:03:38;20.20;;;16.05;;
34960;SDS011;30789;52.030;7.110;2023-06-22T04:06:07;22.33;;;16.15;;
34960;SDS011;30789;52.030;7.110;2023-06-22T04:08:33;26.23;;;16.92;;
34960;SDS011;30789;52.030;7.110;2023-06-22T04:11:00;20.00;;;17.80;;
34960;SDS011;30789;52.030;7.110;2023-06-22T04:13:27;19.80;;;16.55;;
34960;SDS011;30789;52.030;7.110;2023-06-22T04:15:53;18.52;;;16.52;;
34960;SDS011;30789;52.030;7.110;2023-06-22T04:18:20;20.58;;;16.77;;
34960;SDS011;30789;52.030;7.110;2023-06-22T04:20:46;19.40;;;16.95;;
34960;SDS011;30789;52.030;7.110;2023-06-22T04:23:14;19.13;;;15.98;;
34960;SDS011;30789;52.030;7.110;2023-06-22T04:25:40;19.30;;;16.83;;
34960;SDS011;30789;52.030;7.110;2023-06-22T04:28:07;19.15;;;16.35;;
34960;SDS011;30789;52.030;7.110;2023-06-22T04:30:37;19.80;;;16.48;;
34960;SDS011;30789;52.030;7.110;2023-06-22T04:33:11;19.38;;;15.95;;
34960;SDS011;30789;52.030;7.110;2023-06-22T04:35:37;19.10;;;15.98;;
34960;SDS011;30789;52.030;7.110;2023-06-22T04:38:06;21.45;;;17.92;;
34960;SDS011;30789;52.030;7.110;2023-06-22T04:40:34;19.70;;;15.93;;
34960;SDS011;30789;52.030;7.110;2023-06-22T04:43:01;19.60;;;16.67;;
34960;SDS011;30789;52.030;7.110;2023-06-22T04:45:28;21.58;;;17.42;;
34960;SDS011;30789;52.030;7.110;2023-06-22T04:47:55;18.65;;;15.80;;
34960;SDS011;30789;52.030;7.110;2023-06-22T04:50:21;19.65;;;16.05;;
34960;SDS011;30789;52.030;7.110;2023-06-22T04:52:48;22.30;;;16.67;;
34960;SDS011;30789;52.030;7.110;2023-06-22T04:55:15;20.08;;;16.55;;
34960;SDS011;30789;52.030;7.110;2023-06-22T04:57:44;17.88;;;15.40;;
34960;SDS011;30789;52.030;7.110;2023-06-22T05:00:14;18.77;;;15.38;;
34960;SDS011;30789;52.030;7.110;2023-06-22T05:02:42;19.60;;;16.13;;
34960;SDS011;30789;52.030;7.110;2023-06-22T05:05:09;17.67;;;15.80;;
34960;SDS011;30789;52.030;7.110;2023-06-22T05:07:38;17.98;;;16.05;;
34960;SDS011;30789;52.030;7.110;2023-06-22T05:10:07;17.98;;;16.08;;
34960;SDS011;30789;52.030;7.110;2023-06-22T05:12:34;19.08;;;16.85;;
34960;SDS011;30789;52.030;7.110;2023-06-22T05:15:02;18.83;;;16.02;;
34960;SDS011;30789;52.030;7.110;2023-06-22T05:17:29;20.30;;;16.20;;
34960;SDS011;30789;52.030;7.110;2023-06-22T05:19:56;19.92;;;17.13;;
34960;SDS011;30789;52.030;7.110;2023-06-22T05:22:22;18.23;;;16.08;;
34960;SDS011;30789;52.030;7.110;2023-06-22T05:24:49;18.27;;;15.38;;
34960;SDS011;30789;52.030;7.110;2023-06-22T05:27:15;19.88;;;16.13;;
34960;SDS011;30789;52.030;7.110;2023-06-22T05:29:42;19.15;;;16.55;;
34960;SDS011;30789;52.030;7.110;2023-06-22T05:32:10;18.83;;;15.73;;
34960;SDS011;30789;52.030;7.110;2023-06-22T05:34:36;19.83;;;16.88;;
34960;SDS011;30789;52.030;7.110;2023-06-22T05:37:03;26.38;;;15.90;;
34960;SDS011;30789;52.030;7.110;2023-06-22T05:39:30;19.00;;;15.13;;
34960;SDS011;30789;52.030;7.110;2023-06-22T05:41:56;19.02;;;15.00;;
34960;SDS011;30789;52.030;7.110;2023-06-22T05:44:23;18.10;;;15.35;;
34960;SDS011;30789;52.030;7.110;2023-06-22T05:46:49;24.25;;;15.95;;
34960;SDS011;30789;52.030;7.110;2023-06-22T05:49:17;18.20;;;14.55;;
34960;SDS011;30789;52.030;7.110;2023-06-22T05:51:44;16.02;;;14.43;;
34960;SDS011;30789;52.030;7.110;2023-06-22T05:54:10;17.60;;;14.98;;
34960;SDS011;30789;52.030;7.110;2023-06-22T05:56:38;18.70;;;15.20;;
34960;SDS011;30789;52.030;7.110;2023-06-22T05:59:05;19.70;;;15.48;;
34960;SDS011;30789;52.030;7.110;2023-06-22T06:01:31;17.48;;;13.82;;
34960;SDS011;30789;52.030;7.110;2023-06-22T06:03:59;17.95;;;15.13;;
34960;SDS011;30789;52.030;7.110;2023-06-22T06:06:27;15.18;;;13.57;;
34960;SDS011;30789;52.030;7.110;2023-06-22T06:08:54;16.10;;;14.02;;
34960;SDS011;30789;52.030;7.110;2023-06-22T06:11:21;16.58;;;14.60;;
34960;SDS011;30789;52.030;7.110;2023-06-22T06:13:47;16.45;;;14.43;;
34960;SDS011;30789;52.030;7.110;2023-06-22T06:16:14;14.35;;;12.93;;
34960;SDS011;30789;52.030;7.110;2023-06-22T06:18:41;15.07;;;13.48;;
34960;SDS011;30789;52.030;7.110;2023-06-22T06:21:07;15.57;;;13.93;;
34960;SDS011;30789;52.030;7.110;2023-06-22T06:23:35;18.40;;;14.43;;
34960;SDS011;30789;52.030;7.110;2023-06-22T06:26:01;15.32;;;13.80;;
34960;SDS011;30789;52.030;7.110;2023-06-22T06:28:32;14.13;;;12.10;;
34960;SDS011;30789;52.030;7.110;2023-06-22T06:30:58;14.73;;;13.15;;
34960;SDS011;30789;52.030;7.110;2023-06-22T06:33:25;15.73;;;13.68;;
34960;SDS011;30789;52.030;7.110;2023-06-22T06:35:51;15.60;;;13.27;;
34960;SDS011;30789;52.030;7.110;2023-06-22T06:38:18;17.65;;;14.63;;
34960;SDS011;30789;52.030;7.110;2023-06-22T06:40:45;16.23;;;12.90;;
34960;SDS011;30789;52.030;7.110;2023-06-22T06:43:14;16.92;;;12.73;;
34960;SDS011;30789;52.030;7.110;2023-06-22T06:45:40;14.18;;;12.63;;
34960;SDS011;30789;52.030;7.110;2023-06-22T06:48:07;19.35;;;13.98;;
34960;SDS011;30789;52.030;7.110;2023-06-22T06:50:34;17.48;;;13.52;;
34960;SDS011;30789;52.030;7.110;2023-06-22T06:53:00;18.05;;;14.02;;
34960;SDS011;30789;52.030;7.110;2023-06-22T06:55:27;12.88;;;11.60;;
34960;SDS011;30789;52.030;7.110;2023-06-22T06:57:55;14.10;;;12.50;;
34960;SDS011;30789;52.030;7.110;2023-06-22T07:00:21;15.02;;;13.02;;
34960;SDS011;30789;52.030;7.110;2023-06-22T07:02:48;16.48;;;13.93;;
34960;SDS011;30789;52.030;7.110;2023-06-22T07:05:15;15.90;;;13.02;;
34960;SDS011;30789;52.030;7.110;2023-06-22T07:07:41;13.82;;;12.38;;
34960;SDS011;30789;52.030;7.110;2023-06-22T07:10:08;12.32;;;10.80;;
34960;SDS011;30789;52.030;7.110;2023-06-22T07:12:35;14.27;;;12.27;;
34960;SDS011;30789;52.030;7.110;2023-06-22T07:15:04;13.80;;;12.23;;
34960;SDS011;30789;52.030;7.110;2023-06-22T07:17:33;15.13;;;12.40;;
34960;SDS011;30789;52.030;7.110;2023-06-22T07:19:59;12.68;;;11.40;;
34960;SDS011;30789;52.030;7.110;2023-06-22T07:22:26;18.83;;;11.55;;
34960;SDS011;30789;52.030;7.110;2023-06-22T07:24:52;13.02;;;11.55;;
34960;SDS011;30789;52.030;7.110;2023-06-22T07:27:19;13.75;;;11.30;;
34960;SDS011;30789;52.030;7.110;2023-06-22T07:29:46;12.07;;;10.88;;
34960;SDS011;30789;52.030;7.110;2023-06-22T07:32:14;11.95;;;10.75;;
34960;SDS011;30789;52.030;7.110;2023-06-22T07:34:40;13.20;;;11.52;;
34960;SDS011;30789;52.030;7.110;2023-06-22T07:37:07;15.77;;;11.80;;
34960;SDS011;30789;52.030;7.110;2023-06-22T07:39:34;13.38;;;11.07;;
34960;SDS011;30789;52.030;7.110;2023-06-22T07:42:02;11.60;;;9.85;;
34960;SDS011;30789;52.030;7.110;2023-06-22T07:44:29;12.82;;;10.65;;
34960;SDS011;30789;52.030;7.110;2023-06-22T07:46:56;12.25;;;10.75;;
34960;SDS011;30789;52.030;7.110;2023-06-22T07:49:24;13.95;;;11.10;;
34960;SDS011;30789;52.030;7.110;2023-06-22T07:51:50;13.52;;;10.45;;
34960;SDS011;30789;52.030;7.110;2023-06-22T07:54:16;13.27;;;11.95;;
34960;SDS011;30789;52.030;7.110;2023-06-22T07:56:43;12.85;;;11.35;;
34960;SDS011;30789;52.030;7.110;2023-06-22T07:59:09;12.23;;;10.90;;
34960;SDS011;30789;52.030;7.110;2023-06-22T08:01:36;12.02;;;10.82;;
34960;SDS011;30789;52.030;7.110;2023-06-22T08:04:03;11.38;;;10.27;;
34960;SDS011;30789;52.030;7.110;2023-06-22T08:06:32;13.43;;;11.90;;
34960;SDS011;30789;52.030;7.110;2023-06-22T08:08:58;14.43;;;11.88;;
34960;SDS011;30789;52.030;7.110;2023-06-22T08:11:25;13.73;;;10.90;;
34960;SDS011;30789;52.030;7.110;2023-06-22T08:13:51;13.00;;;11.70;;
34960;SDS011;30789;52.030;7.110;2023-06-22T08:16:20;15.52;;;11.82;;
34960;SDS011;30789;52.030;7.110;2023-06-22T08:18:47;15.18;;;11.32;;
34960;SDS011;30789;52.030;7.110;2023-06-22T08:21:13;12.27;;;10.65;;
34960;SDS011;30789;52.030;7.110;2023-06-22T08:23:41;12.68;;;11.02;;
34960;SDS011;30789;52.030;7.110;2023-06-22T08:26:08;15.13;;;12.30;;
34960;SDS011;30789;52.030;7.110;2023-06-22T08:28:35;12.95;;;10.85;;
34960;SDS011;30789;52.030;7.110;2023-06-22T08:31:01;11.95;;;10.57;;
34960;SDS011;30789;52.030;7.110;2023-06-22T08:33:28;12.95;;;11.38;;
34960;SDS011;30789;52.030;7.110;2023-06-22T08:35:55;13.80;;;11.18;;
34960;SDS011;30789;52.030;7.110;2023-06-22T08:38:22;15.35;;;11.77;;
34960;SDS011;30789;52.030;7.110;2023-06-22T08:40:50;11.55;;;10.35;;
34960;SDS011;30789;52.030;7.110;2023-06-22T08:43:16;16.55;;;12.00;;
34960;SDS011;30789;52.030;7.110;2023-06-22T08:45:43;15.60;;;11.60;;
34960;SDS011;30789;52.030;7.110;2023-06-22T08:48:10;13.77;;;11.82;;
34960;SDS011;30789;52.030;7.110;2023-06-22T08:50:37;15.43;;;12.48;;
34960;SDS011;30789;52.030;7.110;2023-06-22T08:53:05;13.48;;;11.88;;
34960;SDS011;30789;52.030;7.110;2023-06-22T08:55:31;12.93;;;11.07;;
34960;SDS011;30789;52.030;7.110;2023-06-22T08:57:59;13.50;;;11.27;;
34960;SDS011;30789;52.030;7.110;2023-06-22T09:00:26;15.15;;;12.75;;
34960;SDS011;30789;52.030;7.110;2023-06-22T09:02:54;13.98;;;12.25;;
34960;SDS011;30789;52.030;7.110;2023-06-22T09:05:23;12.00;;;10.90;;
34960;SDS011;30789;52.030;7.110;2023-06-22T09:07:50;17.73;;;12.25;;
34960;SDS011;30789;52.030;7.110;2023-06-22T09:10:17;12.73;;;11.48;;
34960;SDS011;30789;52.030;7.110;2023-06-22T09:12:43;13.05;;;11.55;;
34960;SDS011;30789;52.030;7.110;2023-06-22T09:15:11;14.15;;;11.68;;
34960;SDS011;30789;52.030;7.110;2023-06-22T09:17:38;12.18;;;10.90;;
34960;SDS011;30789;52.030;7.110;2023-06-22T09:20:05;16.20;;;10.77;;
34960;SDS011;30789;52.030;7.110;2023-06-22T09:22:35;13.43;;;11.75;;
34960;SDS011;30789;52.030;7.110;2023-06-22T09:25:02;12.57;;;11.30;;
34960;SDS011;30789;52.030;7.110;2023-06-22T09:27:29;13.80;;;12.32;;
34960;SDS011;30789;52.030;7.110;2023-06-22T09:29:56;14.68;;;11.98;;
34960;SDS011;30789;52.030;7.110;2023-06-22T09:32:25;15.35;;;12.68;;
34960;SDS011;30789;52.030;7.110;2023-06-22T09:34:51;14.05;;;11.75;;
34960;SDS011;30789;52.030;7.110;2023-06-22T09:37:18;15.80;;;12.75;;
34960;SDS011;30789;52.030;7.110;2023-06-22T09:39:44;13.65;;;11.43;;
34960;SDS011;30789;52.030;7.110;2023-06-22T09:42:11;15.48;;;12.30;;
34960;SDS011;30789;52.030;7.110;2023-06-22T09:44:38;14.07;;;12.68;;
34960;SDS011;30789;52.030;7.110;2023-06-22T09:47:05;13.45;;;11.65;;
34960;SDS011;30789;52.030;7.110;2023-06-22T09:49:33;14.90;;;13.15;;
34960;SDS011;30789;52.030;7.110;2023-06-22T09:52:00;15.68;;;12.75;;
34960;SDS011;30789;52.030;7.110;2023-06-22T09:54:26;14.02;;;12.55;;
34960;SDS011;30789;52.030;7.110;2023-06-22T09:56:53;14.82;;;13.25;;
34960;SDS011;30789;52.030;7.110;2023-06-22T09:59:19;16.50;;;14.05;;
34960;SDS011;30789;52.030;7.110;2023-06-22T10:01:46;16.60;;;12.82;;
34960;SDS011;30789;52.030;7.110;2023-06-22T10:04:12;17.73;;;13.73;;
34960;SDS011;30789;52.030;7.110;2023-06-22T10:06:40;14.93;;;13.32;;
34960;SDS011;30789;52.030;7.110;2023-06-22T10:09:07;18.65;;;14.75;;
34960;SDS011;30789;52.030;7.110;2023-06-22T10:11:34;14.98;;;13.35;;
34960;SDS011;30789;52.030;7.110;2023-06-22T10:14:02;16.50;;;14.80;;
34960;SDS011;30789;52.030;7.110;2023-06-22T10:16:32;16.80;;;13.40;;
34960;SDS011;30789;52.030;7.110;2023-06-22T10:19:00;14.32;;;12.82;;
34960;SDS011;30789;52.030;7.110;2023-06-22T10:21:27;14.63;;;13.05;;
34960;SDS011;30789;52.030;7.110;2023-06-22T10:23:55;14.63;;;13.23;;
34960;SDS011;30789;52.030;7.110;2023-06-22T10:26:22;14.32;;;12.88;;
34960;SDS011;30789;52.030;7.110;2023-06-22T10:28:49;15.98;;;13.77;;
34960;SDS011;30789;52.030;7.110;2023-06-22T10:31:16;15.73;;;12.30;;
34960;SDS011;30789;52.030;7.110;2023-06-22T10:33:42;19.30;;;12.88;;
34960;SDS011;30789;52.030;7.110;2023-06-22T10:36:09;13.70;;;12.25;;
34960;SDS011;30789;52.030;7.110;2023-06-22T10:38:36;15.40;;;13.13;;
34960;SDS011;30789;52.030;7.110;2023-06-22T10:41:04;16.70;;;14.00;;
34960;SDS011;30789;52.030;7.110;2023-06-22T10:43:30;15.48;;;13.88;;
34960;SDS011;30789;52.030;7.110;2023-06-22T10:45:57;15.15;;;13.55;;
34960;SDS011;30789;52.030;7.110;2023-06-22T10:48:23;14.88;;;13.32;;
34960;SDS011;30789;52.030;7.110;2023-06-22T10:50:50;15.90;;;14.20;;
34960;SDS011;30789;52.030;7.110;2023-06-22T10:53:18;16.20;;;13.65;;
34960;SDS011;30789;52.030;7.110;2023-06-22T10:55:44;14.35;;;12.68;;
34960;SDS011;30789;52.030;7.110;2023-06-22T10:58:12;18.33;;;14.68;;
34960;SDS011;30789;52.030;7.110;2023-06-22T11:00:39;14.05;;;12.60;;
34960;SDS011;30789;52.030;7.110;2023-06-22T11:03:05;16.15;;;13.73;;
34960;SDS011;30789;52.030;7.110;2023-06-22T11:05:32;15.50;;;13.80;;
34960;SDS011;30789;52.030;7.110;2023-06-22T11:07:59;15.27;;;13.63;;
34960;SDS011;30789;52.030;7.110;2023-06-22T11:10:26;15.55;;;13.95;;
34960;SDS011;30789;52.030;7.110;2023-06-22T11:12:53;15.68;;;14.13;;
34960;SDS011;30789;52.030;7.110;2023-06-22T11:15:22;15.63;;;14.02;;
34960;SDS011;30789;52.030;7.110;2023-06-22T11:17:48;15.52;;;13.93;;
34960;SDS011;30789;52.030;7.110;2023-06-22T11:20:15;16.63;;;14.82;;
34960;SDS011;30789;52.030;7.110;2023-06-22T11:22:41;16.77;;;14.93;;
34960;SDS011;30789;52.030;7.110;2023-06-22T11:25:08;15.45;;;13.88;;
34960;SDS011;30789;52.030;7.110;2023-06-22T11:27:36;16.58;;;14.82;;
34960;SDS011;30789;52.030;7.110;2023-06-22T11:30:03;14.63;;;13.23;;
34960;SDS011;30789;52.030;7.110;2023-06-22T11:32:31;15.57;;;13.93;;
34960;SDS011;30789;52.030;7.110;2023-06-22T11:34:58;15.20;;;13.27;;
34960;SDS011;30789;52.030;7.110;2023-06-22T11:37:24;14.98;;;13.48;;
34960;SDS011;30789;52.030;7.110;2023-06-22T11:39:51;14.77;;;13.23;;
34960;SDS011;30789;52.030;7.110;2023-06-22T11:42:19;15.63;;;14.07;;
34960;SDS011;30789;52.030;7.110;2023-06-22T11:44:46;16.27;;;13.15;;
34960;SDS011;30789;52.030;7.110;2023-06-22T11:47:12;17.10;;;15.30;;
34960;SDS011;30789;52.030;7.110;2023-06-22T11:49:40;16.10;;;14.32;;
34960;SDS011;30789;52.030;7.110;2023-06-22T11:52:07;16.73;;;14.68;;
34960;SDS011;30789;52.030;7.110;2023-06-22T11:54:34;18.60;;;14.52;;
34960;SDS011;30789;52.030;7.110;2023-06-22T11:57:00;21.75;;;15.95;;
34960;SDS011;30789;52.030;7.110;2023-06-22T11:59:26;17.73;;;15.38;;
34960;SDS011;30789;52.030;7.110;2023-06-22T12:01:53;16.60;;;14.15;;
34960;SDS011;30789;52.030;7.110;2023-06-22T12:04:19;16.85;;;15.05;;
34960;SDS011;30789;52.030;7.110;2023-06-22T12:06:47;15.73;;;13.93;;
34960;SDS011;30789;52.030;7.110;2023-06-22T12:09:14;17.88;;;14.98;;
34960;SDS011;30789;52.030;7.110;2023-06-22T12:11:40;15.50;;;13.90;;
34960;SDS011;30789;52.030;7.110;2023-06-22T12:14:07;17.58;;;15.38;;
34960;SDS011;30789;52.030;7.110;2023-06-22T12:16:33;18.75;;;15.27;;
34960;SDS011;30789;52.030;7.110;2023-06-22T12:19:00;17.08;;;14.65;;
34960;SDS011;30789;52.030;7.110;2023-06-22T12:21:26;20.77;;;14.77;;
34960;SDS011;30789;52.030;7.110;2023-06-22T12:23:55;22.77;;;16.58;;
34960;SDS011;30789;52.030;7.110;2023-06-22T12:26:22;17.45;;;15.63;;
34960;SDS011;30789;52.030;7.110;2023-06-22T12:28:48;16.23;;;14.52;;
34960;SDS011;30789;52.030;7.110;2023-06-22T12:31:15;16.27;;;14.60;;
34960;SDS011;30789;52.030;7.110;2023-06-22T12:33:41;16.70;;;15.00;;
34960;SDS011;30789;52.030;7.110;2023-06-22T12:36:08;18.77;;;16.75;;
34960;SDS011;30789;52.030;7.110;2023-06-22T12:38:34;17.40;;;15.55;;
34960;SDS011;30789;52.030;7.110;2023-06-22T12:41:03;15.77;;;14.18;;
34960;SDS011;30789;52.030;7.110;2023-06-22T12:43:29;18.40;;;14.98;;
34960;SDS011;30789;52.030;7.110;2023-06-22T12:45:55;21.83;;;16.30;;
34960;SDS011;30789;52.030;7.110;2023-06-22T12:48:22;20.13;;;16.23;;
34960;SDS011;30789;52.030;7.110;2023-06-22T12:50:50;17.52;;;15.70;;
34960;SDS011;30789;52.030;7.110;2023-06-22T12:53:16;17.50;;;15.77;;
34960;SDS011;30789;52.030;7.110;2023-06-22T12:55:43;21.60;;;16.02;;
34960;SDS011;30789;52.030;7.110;2023-06-22T12:58:11;20.63;;;16.80;;
34960;SDS011;30789;52.030;7.110;2023-06-22T13:00:38;18.42;;;16.48;;
34960;SDS011;30789;52.030;7.110;2023-06-22T13:03:05;17.40;;;15.60;;
34960;SDS011;30789;52.030;7.110;2023-06-22T13:05:31;19.38;;;16.88;;
34960;SDS011;30789;52.030;7.110;2023-06-22T13:07:59;17.95;;;15.85;;
34960;SDS011;30789;52.030;7.110;2023-06-22T13:10:26;21.88;;;17.00;;
34960;SDS011;30789;52.030;7.110;2023-06-22T13:12:53;21.17;;;16.90;;
34960;SDS011;30789;52.030;7.110;2023-06-22T13:15:26;21.70;;;17.85;;
34960;SDS011;30789;52.030;7.110;2023-06-22T13:17:53;25.75;;;17.98;;
34960;SDS011;30789;52.030;7.110;2023-06-22T13:20:20;24.83;;;17.50;;
34960;SDS011;30789;52.030;7.110;2023-06-22T13:22:46;23.70;;;18.35;;
34960;SDS011;30789;52.030;7.110;2023-06-22T13:25:13;21.75;;;18.10;;
34960;SDS011;30789;52.030;7.110;2023-06-22T13:27:44;22.45;;;17.83;;
34960;SDS011;30789;52.030;7.110;2023-06-22T13:30:10;19.52;;;17.05;;
34960;SDS011;30789;52.030;7.110;2023-06-22T13:32:39;19.27;;;17.38;;
34960;SDS011;30789;52.030;7.110;2023-06-22T13:35:07;19.95;;;17.70;;
34960;SDS011;30789;52.030;7.110;2023-06-22T13:37:34;20.77;;;16.65;;
34960;SDS011;30789;52.030;7.110;2023-06-22T13:40:00;21.05;;;17.95;;
34960;SDS011;30789;52.030;7.110;2023-06-22T13:42:30;18.20;;;16.00;;
34960;SDS011;30789;52.030;7.110;2023-06-22T13:44:56;18.75;;;16.30;;
34960;SDS011;30789;52.030;7.110;2023-06-22T13:47:23;18.33;;;16.13;;
34960;SDS011;30789;52.030;7.110;2023-06-22T13:49:51;18.83;;;16.25;;
34960;SDS011;30789;52.030;7.110;2023-06-22T13:52:18;20.05;;;16.40;;
34960;SDS011;30789;52.030;7.110;2023-06-22T13:54:44;18.50;;;16.38;;
34960;SDS011;30789;52.030;7.110;2023-06-22T13:57:11;17.98;;;15.55;;
34960;SDS011;30789;52.030;7.110;2023-06-22T13:59:37;17.23;;;15.52;;
34960;SDS011;30789;52.030;7.110;2023-06-22T14:02:04;17.20;;;15.40;;
34960;SDS011;30789;52.030;7.110;2023-06-22T14:04:31;15.32;;;13.73;;
34960;SDS011;30789;52.030;7.110;2023-06-22T14:06:59;16.10;;;14.40;;
34960;SDS011;30789;52.030;7.110;2023-06-22T14:09:25;15.95;;;14.25;;
34960;SDS011;30789;52.030;7.110;2023-06-22T14:11:53;18.95;;;14.43;;
34960;SDS011;30789;52.030;7.110;2023-06-22T14:14:20;15.93;;;14.32;;
34960;SDS011;30789;52.030;7.110;2023-06-22T14:16:47;16.35;;;14.57;;
34960;SDS011;30789;52.030;7.110;2023-06-22T14:19:14;15.98;;;14.27;;
34960;SDS011;30789;52.030;7.110;2023-06-22T14:21:43;21.17;;;15.40;;
34960;SDS011;30789;52.030;7.110;2023-06-22T14:24:11;15.48;;;13.90;;